sensor_id;sensor_type;location;lat;lon;timestamp;pressure;altitude;pressure_sealevel;temperature;humidity
28267;BME280;15525;45.568;5.448;2023-05-17T00:01:41;97992.41;;;15.55;47.66
28267;BME280;15525;45.568;5.448;2023-05-17T00:04:06;97996.63;;;15.47;47.26
28267;BME280;15525;45.568;5.448;2023-05-17T00:06:32;97990.84;;;15.40;47.50
28267;BME280;15525;45.568;5.448;2023-05-17T00:08:59;97981.31;;;15.56;47.59
28267;BME280;15525;45.568;5.448;2023-05-17T00:11:24;97991.81;;;15.71;47.60
28267;BME280;15525;45.568;5.448;2023-05-17T00:13:50;97988.59;;;15.69;47.38
28267;BME280;15525;45.568;5.448;2023-05-17T00:16:15;97992.63;;;15.58;47.70
28267;BME280;15525;45.568;5.448;2023-05-17T00:18:41;97969.34;;;15.62;47.14
28267;BME280;15525;45.568;5.448;2023-05-17T00:21:06;97961.44;;;15.25;48.57
28267;BME280;15525;45.568;5.448;2023-05-17T00:23:31;97966.81;;;15.52;47.83
28267;BME280;15525;45.568;5.448;2023-05-17T00:25:57;97966.28;;;15.42;48.16
28267;BME280;15525;45.568;5.448;2023-05-17T00:28:22;97959.94;;;15.33;48.08
28267;BME280;15525;45.568;5.448;2023-05-17T00:30:48;97957.84;;;15.30;48.38
28267;BME280;15525;45.568;5.448;2023-05-17T00:33:13;97992.75;;;15.75;47.73
28267;BME280;15525;45.568;5.448;2023-05-17T00:35:38;97993.09;;;15.33;48.33
28267;BME280;15525;45.568;5.448;2023-05-17T00:38:04;97968.44;;;15.26;48.52
28267;BME280;15525;45.568;5.448;2023-05-17T00:40:29;97972.56;;;15.37;48.62
28267;BME280;15525;45.568;5.448;2023-05-17T00:42:55;97969.25;;;15.40;48.59
28267;BME280;15525;45.568;5.448;2023-05-17T00:45:20;97973.22;;;15.56;48.20
28267;BME280;15525;45.568;5.448;2023-05-17T00:47:46;97984.13;;;15.51;48.32
28267;BME280;15525;45.568;5.448;2023-05-17T00:50:12;97963.06;;;15.26;48.64
28267;BME280;15525;45.568;5.448;2023-05-17T00:52:38;97968.03;;;15.60;47.83
28267;BME280;15525;45.568;5.448;2023-05-17T00:55:03;97969.75;;;15.56;48.24
28267;BME280;15525;45.568;5.448;2023-05-17T00:57:29;97969.03;;;15.23;48.91
28267;BME280;15525;45.568;5.448;2023-05-17T00:59:56;97967.22;;;15.05;49.39
28267;BME280;15525;45.568;5.448;2023-05-17T01:02:21;97952.94;;;15.32;48.66
28267;BME280;15525;45.568;5.448;2023-05-17T01:04:48;97961.84;;;15.46;48.54
28267;BME280;15525;45.568;5.448;2023-05-17T01:07:13;97951.66;;;15.16;49.54
28267;BME280;15525;45.568;5.448;2023-05-17T01:09:39;97954.47;;;15.11;49.40
28267;BME280;15525;45.568;5.448;2023-05-17T01:14:46;97967.44;;;15.22;49.32
28267;BME280;15525;45.568;5.448;2023-05-17T01:17:19;97974.44;;;15.23;49.24
28267;BME280;15525;45.568;5.448;2023-05-17T01:22:43;97963.53;;;15.01;49.90
28267;BME280;15525;45.568;5.448;2023-05-17T01:27:55;97971.91;;;15.00;50.00
28267;BME280;15525;45.568;5.448;2023-05-17T01:30:24;97975.53;;;14.95;50.13
28267;BME280;15525;45.568;5.448;2023-05-17T01:32:52;97975.88;;;14.62;50.97
28267;BME280;15525;45.568;5.448;2023-05-17T01:35:19;97967.50;;;14.77;50.36
28267;BME280;15525;45.568;5.448;2023-05-17T01:37:45;97945.84;;;14.68;50.49
28267;BME280;15525;45.568;5.448;2023-05-17T01:40:10;97920.69;;;14.59;50.37
28267;BME280;15525;45.568;5.448;2023-05-17T01:42:37;97955.34;;;14.93;50.03
28267;BME280;15525;45.568;5.448;2023-05-17T01:48:30;97967.53;;;15.17;50.42
28267;BME280;15525;45.568;5.448;2023-05-17T01:50:59;97960.63;;;14.71;51.24
28267;BME280;15525;45.568;5.448;2023-05-17T01:53:38;97954.94;;;14.72;51.15
28267;BME280;15525;45.568;5.448;2023-05-17T01:56:09;97971.81;;;14.78;51.08
28267;BME280;15525;45.568;5.448;2023-05-17T01:58:47;97975.00;;;14.80;51.13
28267;BME280;15525;45.568;5.448;2023-05-17T02:01:17;97975.00;;;14.66;52.00
28267;BME280;15525;45.568;5.448;2023-05-17T02:03:47;97945.53;;;14.56;51.50
28267;BME280;15525;45.568;5.448;2023-05-17T02:06:12;97957.34;;;14.74;51.18
28267;BME280;15525;45.568;5.448;2023-05-17T02:08:38;97949.13;;;14.52;51.84
28267;BME280;15525;45.568;5.448;2023-05-17T02:11:03;97939.75;;;14.49;51.73
28267;BME280;15525;45.568;5.448;2023-05-17T02:13:29;97946.75;;;14.77;51.35
28267;BME280;15525;45.568;5.448;2023-05-17T02:15:59;97964.06;;;14.44;52.58
28267;BME280;15525;45.568;5.448;2023-05-17T02:18:24;97952.38;;;14.49;52.66
28267;BME280;15525;45.568;5.448;2023-05-17T02:20:50;97965.47;;;14.23;53.47
28267;BME280;15525;45.568;5.448;2023-05-17T02:23:16;97949.47;;;14.13;53.36
28267;BME280;15525;45.568;5.448;2023-05-17T02:25:41;97943.53;;;14.48;52.71
28267;BME280;15525;45.568;5.448;2023-05-17T02:28:07;97956.56;;;14.41;52.51
28267;BME280;15525;45.568;5.448;2023-05-17T02:30:32;97941.00;;;13.88;54.16
28267;BME280;15525;45.568;5.448;2023-05-17T02:32:57;97959.84;;;14.38;52.59
28267;BME280;15525;45.568;5.448;2023-05-17T02:35:23;97941.59;;;14.35;52.70
28267;BME280;15525;45.568;5.448;2023-05-17T02:37:48;97944.59;;;14.34;52.64
28267;BME280;15525;45.568;5.448;2023-05-17T02:40:14;97956.84;;;13.89;54.04
28267;BME280;15525;45.568;5.448;2023-05-17T02:42:39;97950.03;;;14.10;52.96
28267;BME280;15525;45.568;5.448;2023-05-17T02:45:05;97944.53;;;13.83;53.82
28267;BME280;15525;45.568;5.448;2023-05-17T02:47:31;97953.50;;;13.60;54.36
28267;BME280;15525;45.568;5.448;2023-05-17T02:49:56;97931.91;;;13.65;53.95
28267;BME280;15525;45.568;5.448;2023-05-17T02:52:21;97951.97;;;13.91;53.46
28267;BME280;15525;45.568;5.448;2023-05-17T02:54:47;97942.06;;;14.05;52.82
28267;BME280;15525;45.568;5.448;2023-05-17T02:57:12;97965.88;;;13.98;53.45
28267;BME280;15525;45.568;5.448;2023-05-17T02:59:38;97958.50;;;14.04;52.89
28267;BME280;15525;45.568;5.448;2023-05-17T03:02:04;97946.34;;;14.06;53.00
28267;BME280;15525;45.568;5.448;2023-05-17T03:04:29;97939.81;;;13.94;52.66
28267;BME280;15525;45.568;5.448;2023-05-17T03:06:54;97946.50;;;14.15;52.44
28267;BME280;15525;45.568;5.448;2023-05-17T03:09:20;97942.06;;;14.05;52.49
28267;BME280;15525;45.568;5.448;2023-05-17T03:11:46;97958.50;;;14.22;52.19
28267;BME280;15525;45.568;5.448;2023-05-17T03:14:12;97942.47;;;13.80;53.16
28267;BME280;15525;45.568;5.448;2023-05-17T03:16:38;97960.13;;;14.05;52.61
28267;BME280;15525;45.568;5.448;2023-05-17T03:19:03;97955.88;;;14.17;52.30
28267;BME280;15525;45.568;5.448;2023-05-17T03:21:29;97960.53;;;14.12;52.11
28267;BME280;15525;45.568;5.448;2023-05-17T03:23:54;97950.88;;;13.92;52.38
28267;BME280;15525;45.568;5.448;2023-05-17T03:26:20;97953.34;;;14.07;52.27
28267;BME280;15525;45.568;5.448;2023-05-17T03:28:45;97963.19;;;13.98;52.47
28267;BME280;15525;45.568;5.448;2023-05-17T03:31:11;97977.22;;;13.95;52.46
28267;BME280;15525;45.568;5.448;2023-05-17T03:33:36;97977.13;;;14.00;51.87
28267;BME280;15525;45.568;5.448;2023-05-17T03:36:02;97970.00;;;14.09;52.11
28267;BME280;15525;45.568;5.448;2023-05-17T03:38:27;97978.31;;;13.94;52.08
28267;BME280;15525;45.568;5.448;2023-05-17T03:40:53;97983.91;;;13.98;52.29
28267;BME280;15525;45.568;5.448;2023-05-17T03:43:19;97958.31;;;13.82;51.92
28267;BME280;15525;45.568;5.448;2023-05-17T03:45:44;97950.59;;;13.75;52.30
28267;BME280;15525;45.568;5.448;2023-05-17T03:48:09;97975.09;;;13.74;52.34
28267;BME280;15525;45.568;5.448;2023-05-17T03:50:35;97968.81;;;13.41;52.96
28267;BME280;15525;45.568;5.448;2023-05-17T03:53:01;97947.75;;;13.48;52.76
28267;BME280;15525;45.568;5.448;2023-05-17T03:55:26;97957.59;;;13.76;51.87
28267;BME280;15525;45.568;5.448;2023-05-17T03:57:51;97918.97;;;13.49;52.31
28267;BME280;15525;45.568;5.448;2023-05-17T04:00:17;97982.78;;;13.43;52.81
28267;BME280;15525;45.568;5.448;2023-05-17T04:02:47;97909.53;;;13.33;52.05
28267;BME280;15525;45.568;5.448;2023-05-17T04:05:12;97949.16;;;13.46;52.39
28267;BME280;15525;45.568;5.448;2023-05-17T04:07:38;97992.31;;;13.54;52.58
28267;BME280;15525;45.568;5.448;2023-05-17T04:10:04;97975.00;;;13.42;52.57
28267;BME280;15525;45.568;5.448;2023-05-17T04:12:30;97942.19;;;13.21;52.89
28267;BME280;15525;45.568;5.448;2023-05-17T04:14:55;97974.31;;;13.55;52.09
28267;BME280;15525;45.568;5.448;2023-05-17T04:17:21;97971.38;;;13.51;52.40
28267;BME280;15525;45.568;5.448;2023-05-17T04:19:46;97991.81;;;13.52;52.71
28267;BME280;15525;45.568;5.448;2023-05-17T04:22:11;97993.66;;;13.75;51.87
28267;BME280;15525;45.568;5.448;2023-05-17T04:24:37;97993.63;;;13.57;52.21
28267;BME280;15525;45.568;5.448;2023-05-17T04:27:03;97984.03;;;13.69;51.93
28267;BME280;15525;45.568;5.448;2023-05-17T04:29:28;97992.78;;;13.61;52.57
28267;BME280;15525;45.568;5.448;2023-05-17T04:31:54;98006.44;;;13.41;52.43
28267;BME280;15525;45.568;5.448;2023-05-17T04:34:19;98001.91;;;13.60;52.26
28267;BME280;15525;45.568;5.448;2023-05-17T04:36:47;98009.88;;;13.70;51.72
28267;BME280;15525;45.568;5.448;2023-05-17T04:39:13;97995.34;;;13.48;52.19
28267;BME280;15525;45.568;5.448;2023-05-17T04:41:38;98008.38;;;13.59;52.11
28267;BME280;15525;45.568;5.448;2023-05-17T04:44:05;98000.09;;;13.74;51.24
28267;BME280;15525;45.568;5.448;2023-05-17T04:46:31;97977.34;;;13.06;52.71
28267;BME280;15525;45.568;5.448;2023-05-17T04:48:57;98003.19;;;13.44;52.00
28267;BME280;15525;45.568;5.448;2023-05-17T04:51:22;98007.34;;;13.13;52.90
28267;BME280;15525;45.568;5.448;2023-05-17T04:53:48;98018.94;;;13.09;53.12
28267;BME280;15525;45.568;5.448;2023-05-17T04:56:14;97989.00;;;12.92;52.66
28267;BME280;15525;45.568;5.448;2023-05-17T04:58:39;98007.28;;;13.18;52.80
28267;BME280;15525;45.568;5.448;2023-05-17T05:01:05;98012.66;;;13.18;52.57
28267;BME280;15525;45.568;5.448;2023-05-17T05:03:30;98012.44;;;13.15;52.69
28267;BME280;15525;45.568;5.448;2023-05-17T05:05:56;98017.25;;;13.18;52.90
28267;BME280;15525;45.568;5.448;2023-05-17T05:08:21;98006.13;;;13.01;52.82
28267;BME280;15525;45.568;5.448;2023-05-17T05:10:46;98031.53;;;13.13;53.24
28267;BME280;15525;45.568;5.448;2023-05-17T05:13:13;98007.50;;;12.98;52.82
28267;BME280;15525;45.568;5.448;2023-05-17T05:15:38;98023.34;;;13.23;52.50
28267;BME280;15525;45.568;5.448;2023-05-17T05:18:04;98014.09;;;13.34;52.17
28267;BME280;15525;45.568;5.448;2023-05-17T05:20:30;98036.84;;;13.42;51.96
28267;BME280;15525;45.568;5.448;2023-05-17T05:22:55;98025.06;;;13.14;52.52
28267;BME280;15525;45.568;5.448;2023-05-17T05:25:22;98055.19;;;13.35;52.55
28267;BME280;15525;45.568;5.448;2023-05-17T05:27:48;98032.78;;;13.21;52.27
28267;BME280;15525;45.568;5.448;2023-05-17T05:30:13;98040.00;;;13.25;51.83
28267;BME280;15525;45.568;5.448;2023-05-17T05:32:47;98030.72;;;12.56;53.55
28267;BME280;15525;45.568;5.448;2023-05-17T05:35:12;98038.97;;;13.21;52.41
28267;BME280;15525;45.568;5.448;2023-05-17T05:37:38;98040.69;;;13.36;52.26
28267;BME280;15525;45.568;5.448;2023-05-17T05:40:03;98033.75;;;13.72;51.32
28267;BME280;15525;45.568;5.448;2023-05-17T05:42:29;98040.31;;;13.66;51.75
28267;BME280;15525;45.568;5.448;2023-05-17T05:44:54;98037.97;;;13.12;52.26
28267;BME280;15525;45.568;5.448;2023-05-17T05:47:20;98035.06;;;13.32;51.70
28267;BME280;15525;45.568;5.448;2023-05-17T05:49:45;98027.59;;;13.29;51.78
28267;BME280;15525;45.568;5.448;2023-05-17T05:52:10;98046.50;;;13.66;51.50
28267;BME280;15525;45.568;5.448;2023-05-17T05:54:36;98041.34;;;13.46;51.40
28267;BME280;15525;45.568;5.448;2023-05-17T05:57:01;98056.81;;;13.36;51.77
28267;BME280;15525;45.568;5.448;2023-05-17T05:59:27;98038.78;;;13.78;51.19
28267;BME280;15525;45.568;5.448;2023-05-17T06:01:52;98053.00;;;14.02;50.50
28267;BME280;15525;45.568;5.448;2023-05-17T06:04:17;98054.81;;;13.88;50.83
28267;BME280;15525;45.568;5.448;2023-05-17T06:06:43;98038.84;;;13.73;51.18
28267;BME280;15525;45.568;5.448;2023-05-17T06:09:08;98055.44;;;13.80;51.28
28267;BME280;15525;45.568;5.448;2023-05-17T06:11:36;98066.56;;;13.50;51.81
28267;BME280;15525;45.568;5.448;2023-05-17T06:14:02;98084.22;;;13.80;51.13
28267;BME280;15525;45.568;5.448;2023-05-17T06:16:28;98061.44;;;13.96;50.83
28267;BME280;15525;45.568;5.448;2023-05-17T06:18:53;98085.88;;;13.99;50.95
28267;BME280;15525;45.568;5.448;2023-05-17T06:21:18;98068.41;;;13.97;50.77
28267;BME280;15525;45.568;5.448;2023-05-17T06:23:44;98052.41;;;13.87;51.08
28267;BME280;15525;45.568;5.448;2023-05-17T06:26:09;98042.66;;;13.91;50.48
28267;BME280;15525;45.568;5.448;2023-05-17T06:28:38;98078.41;;;14.33;50.35
28267;BME280;15525;45.568;5.448;2023-05-17T06:31:03;98080.69;;;14.26;50.34
28267;BME280;15525;45.568;5.448;2023-05-17T06:33:29;98069.09;;;14.44;50.27
28267;BME280;15525;45.568;5.448;2023-05-17T06:35:55;98084.94;;;14.64;49.74
28267;BME280;15525;45.568;5.448;2023-05-17T06:38:21;98080.13;;;14.61;49.94
28267;BME280;15525;45.568;5.448;2023-05-17T06:40:47;98071.84;;;14.58;49.86
28267;BME280;15525;45.568;5.448;2023-05-17T06:43:15;98085.09;;;14.54;50.06
28267;BME280;15525;45.568;5.448;2023-05-17T06:45:41;98088.81;;;14.90;49.27
28267;BME280;15525;45.568;5.448;2023-05-17T06:48:06;98060.69;;;14.64;49.45
28267;BME280;15525;45.568;5.448;2023-05-17T06:50:31;98083.22;;;14.87;49.19
28267;BME280;15525;45.568;5.448;2023-05-17T06:52:57;98083.69;;;14.75;49.76
28267;BME280;15525;45.568;5.448;2023-05-17T06:55:22;98077.97;;;14.77;49.49
28267;BME280;15525;45.568;5.448;2023-05-17T06:57:47;98073.97;;;14.74;49.53
28267;BME280;15525;45.568;5.448;2023-05-17T07:00:13;98073.03;;;14.97;48.79
28267;BME280;15525;45.568;5.448;2023-05-17T07:02:39;98083.47;;;15.49;48.73
28267;BME280;15525;45.568;5.448;2023-05-17T07:05:05;98095.75;;;15.42;48.42
28267;BME280;15525;45.568;5.448;2023-05-17T07:07:31;98073.44;;;15.36;48.60
28267;BME280;15525;45.568;5.448;2023-05-17T07:09:56;98079.34;;;15.65;48.16
28267;BME280;15525;45.568;5.448;2023-05-17T07:12:21;98103.13;;;15.90;47.51
28267;BME280;15525;45.568;5.448;2023-05-17T07:14:47;98088.03;;;15.49;48.09
28267;BME280;15525;45.568;5.448;2023-05-17T07:17:12;98082.69;;;16.11;46.89
28267;BME280;15525;45.568;5.448;2023-05-17T07:19:38;98090.94;;;15.66;48.04
28267;BME280;15525;45.568;5.448;2023-05-17T07:22:03;98092.59;;;16.16;47.31
28267;BME280;15525;45.568;5.448;2023-05-17T07:24:29;98094.03;;;15.86;47.58
28267;BME280;15525;45.568;5.448;2023-05-17T07:26:54;98095.13;;;16.12;47.08
28267;BME280;15525;45.568;5.448;2023-05-17T07:29:20;98076.09;;;16.17;46.71
28267;BME280;15525;45.568;5.448;2023-05-17T07:31:45;98108.34;;;16.49;46.50
28267;BME280;15525;45.568;5.448;2023-05-17T07:34:12;98091.94;;;16.32;45.80
28267;BME280;15525;45.568;5.448;2023-05-17T07:36:37;98085.31;;;16.38;46.78
28267;BME280;15525;45.568;5.448;2023-05-17T07:39:03;98080.53;;;16.35;46.70
28267;BME280;15525;45.568;5.448;2023-05-17T07:41:29;98107.41;;;16.54;46.52
28267;BME280;15525;45.568;5.448;2023-05-17T07:43:55;98107.31;;;16.81;45.97
28267;BME280;15525;45.568;5.448;2023-05-17T07:46:21;98108.78;;;16.87;45.52
28267;BME280;15525;45.568;5.448;2023-05-17T07:48:46;98114.09;;;16.70;46.11
28267;BME280;15525;45.568;5.448;2023-05-17T07:51:12;98096.94;;;16.74;46.00
28267;BME280;15525;45.568;5.448;2023-05-17T07:53:37;98117.31;;;17.24;45.43
28267;BME280;15525;45.568;5.448;2023-05-17T07:56:03;98103.16;;;16.97;45.40
28267;BME280;15525;45.568;5.448;2023-05-17T07:58:28;98126.41;;;16.84;45.80
28267;BME280;15525;45.568;5.448;2023-05-17T08:00:54;98106.75;;;17.14;45.55
28267;BME280;15525;45.568;5.448;2023-05-17T08:03:20;98100.25;;;17.24;44.67
28267;BME280;15525;45.568;5.448;2023-05-17T08:05:45;98116.53;;;17.54;44.87
28267;BME280;15525;45.568;5.448;2023-05-17T08:08:11;98112.06;;;17.89;44.33
28267;BME280;15525;45.568;5.448;2023-05-17T08:10:36;98115.50;;;18.28;43.77
28267;BME280;15525;45.568;5.448;2023-05-17T08:13:02;98112.50;;;17.82;44.49
28267;BME280;15525;45.568;5.448;2023-05-17T08:15:29;98125.84;;;17.70;44.44
28267;BME280;15525;45.568;5.448;2023-05-17T08:17:54;98095.19;;;17.22;45.32
28267;BME280;15525;45.568;5.448;2023-05-17T08:20:20;98107.13;;;16.77;45.51
28267;BME280;15525;45.568;5.448;2023-05-17T08:22:46;98098.78;;;16.65;45.77
28267;BME280;15525;45.568;5.448;2023-05-17T08:25:11;98105.31;;;16.86;45.65
28267;BME280;15525;45.568;5.448;2023-05-17T08:27:36;98102.59;;;17.08;45.41
28267;BME280;15525;45.568;5.448;2023-05-17T08:30:02;98105.66;;;16.93;45.32
28267;BME280;15525;45.568;5.448;2023-05-17T08:32:28;98109.72;;;17.35;45.11
28267;BME280;15525;45.568;5.448;2023-05-17T08:34:53;98103.50;;;17.65;44.28
28267;BME280;15525;45.568;5.448;2023-05-17T08:37:20;98103.56;;;18.38;43.84
28267;BME280;15525;45.568;5.448;2023-05-17T08:39:45;98088.09;;;18.38;43.77
28267;BME280;15525;45.568;5.448;2023-05-17T08:42:13;98096.72;;;18.66;42.87
28267;BME280;15525;45.568;5.448;2023-05-17T08:44:39;98105.19;;;18.47;43.33
28267;BME280;15525;45.568;5.448;2023-05-17T08:47:05;98107.16;;;18.16;44.06
28267;BME280;15525;45.568;5.448;2023-05-17T08:49:32;98117.31;;;18.67;43.12
28267;BME280;15525;45.568;5.448;2023-05-17T08:51:59;98114.59;;;18.41;43.09
28267;BME280;15525;45.568;5.448;2023-05-17T08:54:26;98106.56;;;19.04;42.60
28267;BME280;15525;45.568;5.448;2023-05-17T08:56:58;98108.88;;;19.48;42.02
28267;BME280;15525;45.568;5.448;2023-05-17T08:59:25;98106.41;;;19.26;41.12
28267;BME280;15525;45.568;5.448;2023-05-17T09:01:52;98118.09;;;18.67;42.26
28267;BME280;15525;45.568;5.448;2023-05-17T09:04:19;98109.31;;;18.96;42.76
28267;BME280;15525;45.568;5.448;2023-05-17T09:06:45;98112.34;;;19.03;42.32
28267;BME280;15525;45.568;5.448;2023-05-17T09:09:10;98101.41;;;19.37;41.92
28267;BME280;15525;45.568;5.448;2023-05-17T09:11:36;98105.09;;;20.36;40.46
28267;BME280;15525;45.568;5.448;2023-05-17T09:14:03;98113.88;;;20.42;40.18
28267;BME280;15525;45.568;5.448;2023-05-17T09:16:30;98112.94;;;20.58;39.90
28267;BME280;15525;45.568;5.448;2023-05-17T09:18:58;98097.72;;;20.16;40.76
28267;BME280;15525;45.568;5.448;2023-05-17T09:21:24;98111.75;;;20.27;40.58
28267;BME280;15525;45.568;5.448;2023-05-17T09:23:50;98122.28;;;20.28;40.61
28267;BME280;15525;45.568;5.448;2023-05-17T09:26:16;98123.88;;;19.63;41.16
28267;BME280;15525;45.568;5.448;2023-05-17T09:28:42;98107.84;;;18.98;42.19
28267;BME280;15525;45.568;5.448;2023-05-17T09:31:09;98127.19;;;18.88;41.88
28267;BME280;15525;45.568;5.448;2023-05-17T09:33:45;98104.84;;;19.00;41.39
28267;BME280;15525;45.568;5.448;2023-05-17T09:36:23;98095.22;;;19.28;40.79
28267;BME280;15525;45.568;5.448;2023-05-17T09:38:55;98114.16;;;19.91;40.58
28267;BME280;15525;45.568;5.448;2023-05-17T09:41:25;98126.72;;;20.04;40.55
28267;BME280;15525;45.568;5.448;2023-05-17T09:43:51;98115.13;;;20.44;40.51
28267;BME280;15525;45.568;5.448;2023-05-17T09:46:18;98143.44;;;20.14;40.30
28267;BME280;15525;45.568;5.448;2023-05-17T09:48:44;98117.03;;;19.48;41.36
28267;BME280;15525;45.568;5.448;2023-05-17T09:51:11;98114.63;;;19.47;41.00
28267;BME280;15525;45.568;5.448;2023-05-17T09:53:36;98121.38;;;19.41;41.69
28267;BME280;15525;45.568;5.448;2023-05-17T09:56:06;98124.81;;;19.67;41.24
28267;BME280;15525;45.568;5.448;2023-05-17T09:58:33;98112.16;;;20.08;40.50
28267;BME280;15525;45.568;5.448;2023-05-17T10:01:02;98111.38;;;19.62;40.92
28267;BME280;15525;45.568;5.448;2023-05-17T10:03:32;98140.88;;;19.80;40.74
28267;BME280;15525;45.568;5.448;2023-05-17T10:06:07;98132.97;;;19.58;41.54
28267;BME280;15525;45.568;5.448;2023-05-17T10:08:33;98124.84;;;19.96;39.89
28267;BME280;15525;45.568;5.448;2023-05-17T10:11:05;98126.09;;;19.61;40.82
28267;BME280;15525;45.568;5.448;2023-05-17T10:13:48;98114.41;;;19.98;40.31
28267;BME280;15525;45.568;5.448;2023-05-17T10:16:14;98129.13;;;20.34;40.03
28267;BME280;15525;45.568;5.448;2023-05-17T10:18:40;98133.16;;;19.91;41.03
28267;BME280;15525;45.568;5.448;2023-05-17T10:21:07;98130.06;;;20.09;40.72
28267;BME280;15525;45.568;5.448;2023-05-17T10:23:33;98105.88;;;19.41;40.93
28267;BME280;15525;45.568;5.448;2023-05-17T10:25:59;98109.53;;;19.54;41.08
28267;BME280;15525;45.568;5.448;2023-05-17T10:28:26;98129.03;;;20.22;40.37
28267;BME280;15525;45.568;5.448;2023-05-17T10:30:53;98114.00;;;20.45;40.37
28267;BME280;15525;45.568;5.448;2023-05-17T10:33:19;98113.78;;;19.63;40.67
28267;BME280;15525;45.568;5.448;2023-05-17T10:35:46;98121.84;;;19.51;41.68
28267;BME280;15525;45.568;5.448;2023-05-17T10:38:11;98111.44;;;20.20;40.53
28267;BME280;15525;45.568;5.448;2023-05-17T10:40:38;98106.00;;;20.49;40.04
28267;BME280;15525;45.568;5.448;2023-05-17T10:43:06;98103.09;;;19.67;40.71
28267;BME280;15525;45.568;5.448;2023-05-17T10:45:35;98120.88;;;19.47;41.67
28267;BME280;15525;45.568;5.448;2023-05-17T10:48:03;98116.88;;;19.82;41.35
28267;BME280;15525;45.568;5.448;2023-05-17T10:50:30;98107.19;;;19.73;41.29
28267;BME280;15525;45.568;5.448;2023-05-17T10:52:57;98097.03;;;19.90;41.21
28267;BME280;15525;45.568;5.448;2023-05-17T10:55:36;98102.91;;;19.72;41.41
28267;BME280;15525;45.568;5.448;2023-05-17T10:58:25;98105.91;;;20.37;40.88
28267;BME280;15525;45.568;5.448;2023-05-17T11:00:51;98098.78;;;20.24;41.00
28267;BME280;15525;45.568;5.448;2023-05-17T11:03:26;98092.69;;;19.98;40.65
28267;BME280;15525;45.568;5.448;2023-05-17T11:08:44;98106.88;;;19.74;41.13
28267;BME280;15525;45.568;5.448;2023-05-17T11:11:17;98112.78;;;20.05;40.87
28267;BME280;15525;45.568;5.448;2023-05-17T11:13:53;98093.25;;;20.12;41.14
28267;BME280;15525;45.568;5.448;2023-05-17T11:16:26;98104.81;;;20.09;41.03
28267;BME280;15525;45.568;5.448;2023-05-17T11:18:53;98109.72;;;20.15;41.48
28267;BME280;15525;45.568;5.448;2023-05-17T11:21:20;98104.22;;;19.95;41.42
28267;BME280;15525;45.568;5.448;2023-05-17T11:23:48;98107.81;;;19.78;41.73
28267;BME280;15525;45.568;5.448;2023-05-17T11:26:23;98092.78;;;19.81;42.14
28267;BME280;15525;45.568;5.448;2023-05-17T11:29:08;98100.31;;;20.13;41.05
28267;BME280;15525;45.568;5.448;2023-05-17T11:31:36;98097.97;;;19.94;41.27
28267;BME280;15525;45.568;5.448;2023-05-17T11:34:05;98086.81;;;19.58;41.83
28267;BME280;15525;45.568;5.448;2023-05-17T11:36:32;98096.84;;;19.66;41.87
28267;BME280;15525;45.568;5.448;2023-05-17T11:39:19;98082.09;;;19.76;41.78
28267;BME280;15525;45.568;5.448;2023-05-17T11:41:52;98091.59;;;19.90;42.04
28267;BME280;15525;45.568;5.448;2023-05-17T11:44:29;98085.94;;;20.04;41.93
28267;BME280;15525;45.568;5.448;2023-05-17T11:47:07;98093.06;;;19.88;41.63
28267;BME280;15525;45.568;5.448;2023-05-17T11:49:37;98088.69;;;19.95;41.96
28267;BME280;15525;45.568;5.448;2023-05-17T11:52:06;98087.81;;;20.12;41.67
28267;BME280;15525;45.568;5.448;2023-05-17T11:54:32;98088.56;;;20.21;41.40
28267;BME280;15525;45.568;5.448;2023-05-17T11:56:58;98084.34;;;20.11;41.72
28267;BME280;15525;45.568;5.448;2023-05-17T11:59:24;98064.44;;;19.90;41.41
28267;BME280;15525;45.568;5.448;2023-05-17T12:01:50;98055.81;;;19.88;41.18
28267;BME280;15525;45.568;5.448;2023-05-17T12:04:24;98060.81;;;20.07;39.71
28267;BME280;15525;45.568;5.448;2023-05-17T12:06:51;98055.38;;;20.15;40.77
28267;BME280;15525;45.568;5.448;2023-05-17T12:09:16;98037.16;;;20.07;40.78
28267;BME280;15525;45.568;5.448;2023-05-17T12:11:42;98092.50;;;20.32;40.73
28267;BME280;15525;45.568;5.448;2023-05-17T12:14:08;98054.97;;;20.25;39.81
28267;BME280;15525;45.568;5.448;2023-05-17T12:16:35;98089.78;;;20.52;40.00
28267;BME280;15525;45.568;5.448;2023-05-17T12:19:01;98086.97;;;20.49;40.33
28267;BME280;15525;45.568;5.448;2023-05-17T12:21:27;98088.00;;;20.15;40.30
28267;BME280;15525;45.568;5.448;2023-05-17T12:23:53;98080.56;;;20.24;40.13
28267;BME280;15525;45.568;5.448;2023-05-17T12:26:20;98089.66;;;20.49;39.95
28267;BME280;15525;45.568;5.448;2023-05-17T12:31:20;98077.66;;;20.91;39.62
28267;BME280;15525;45.568;5.448;2023-05-17T12:33:46;98065.97;;;20.49;38.32
28267;BME280;15525;45.568;5.448;2023-05-17T12:36:15;98085.63;;;20.34;39.14
28267;BME280;15525;45.568;5.448;2023-05-17T12:38:42;98069.16;;;20.51;39.28
28267;BME280;15525;45.568;5.448;2023-05-17T12:41:10;98085.00;;;20.91;38.52
28267;BME280;15525;45.568;5.448;2023-05-17T12:43:39;98080.03;;;20.93;38.07
28267;BME280;15525;45.568;5.448;2023-05-17T12:48:36;98076.69;;;20.87;37.61
28267;BME280;15525;45.568;5.448;2023-05-17T12:51:18;98066.44;;;20.93;36.92
28267;BME280;15525;45.568;5.448;2023-05-17T12:53:50;98069.50;;;21.03;36.63
28267;BME280;15525;45.568;5.448;2023-05-17T12:56:20;98080.66;;;21.10;36.66
28267;BME280;15525;45.568;5.448;2023-05-17T12:59:06;98076.03;;;20.90;35.03
28267;BME280;15525;45.568;5.448;2023-05-17T13:04:10;98072.56;;;21.02;36.25
28267;BME280;15525;45.568;5.448;2023-05-17T13:09:07;98067.25;;;21.62;36.11
28267;BME280;15525;45.568;5.448;2023-05-17T13:11:33;98063.72;;;21.61;36.14
28267;BME280;15525;45.568;5.448;2023-05-17T13:14:04;98070.28;;;21.48;36.04
28267;BME280;15525;45.568;5.448;2023-05-17T13:16:30;98064.09;;;21.72;35.97
28267;BME280;15525;45.568;5.448;2023-05-17T13:18:55;98060.75;;;21.54;36.40
28267;BME280;15525;45.568;5.448;2023-05-17T13:21:21;98076.81;;;21.92;35.94
28267;BME280;15525;45.568;5.448;2023-05-17T13:23:48;98076.69;;;21.76;35.65